createdAt,value
2022-10-01T00:01:46.512Z,100003.97
2022-10-01T00:06:03.731Z,99999.66
2022-10-01T00:10:16.100Z,99989.94
2022-10-01T00:14:27.967Z,99976.13
2022-10-01T00:18:42.203Z,99967.69
2022-10-01T00:22:53.829Z,99975.50
2022-10-01T00:27:05.363Z,99983.84
2022-10-01T00:31:16.913Z,99959.28
2022-10-01T00:35:28.644Z,99957.41
2022-10-01T00:39:40.111Z,99954.69
2022-10-01T00:44:18.248Z,99924.09
2022-10-01T00:48:34.785Z,99931.44
2022-10-01T00:52:52.270Z,99945.66
2022-10-01T00:57:07.179Z,99955.06
2022-10-01T01:01:19.044Z,99948.34
2022-10-01T01:05:30.890Z,99935.22
2022-10-01T01:09:46.249Z,99937.72
2022-10-01T01:14:16.389Z,99888.56
2022-10-01T01:18:53.008Z,99876.16
2022-10-01T01:23:25.327Z,99875.66
2022-10-01T01:27:42.073Z,99846.03
2022-10-01T01:31:58.784Z,99830.63
2022-10-01T01:36:16.414Z,99801.97
2022-10-01T01:40:31.564Z,99813.84
2022-10-01T01:44:46.101Z,99807.41
2022-10-01T01:49:00.650Z,99817.03
2022-10-01T01:53:12.229Z,99801.41
2022-10-01T01:57:23.821Z,99799.00
2022-10-01T02:01:42.611Z,99825.75
2022-10-01T02:06:22.240Z,99817.69
2022-10-01T02:10:36.963Z,99748.09
2022-10-01T02:14:59.501Z,99751.66
2022-10-01T02:19:41.213Z,99746.00
2022-10-01T02:23:59.431Z,99723.34
2022-10-01T02:28:16.380Z,99730.38
2022-10-01T02:32:31.232Z,99723.34
2022-10-01T02:36:45.270Z,99722.84
2022-10-01T02:41:00.965Z,99705.34
2022-10-01T02:45:15.460Z,99701.34
2022-10-01T02:49:30.815Z,99689.50
2022-10-01T02:53:49.007Z,99694.88
2022-10-01T02:58:00.499Z,99687.94
2022-10-01T03:02:12.300Z,99691.94
2022-10-01T03:06:23.911Z,99696.06
2022-10-01T03:10:35.458Z,99685.53
2022-10-01T03:14:47.589Z,99680.13
2022-10-01T03:18:59.165Z,99676.59
2022-10-01T03:23:10.685Z,99673.09
2022-10-01T03:27:22.440Z,99672.84
2022-10-01T03:31:34.274Z,99664.53
2022-10-01T03:35:46.049Z,99676.91
2022-10-01T03:39:57.549Z,99666.66
2022-10-01T03:44:09.021Z,99690.97
2022-10-01T03:48:21.126Z,99672.09
2022-10-01T03:52:32.610Z,99677.78
2022-10-01T03:56:44.115Z,99674.28
2022-10-01T04:00:55.930Z,99668.13
2022-10-01T04:05:08.264Z,99679.22
2022-10-01T04:09:20.919Z,99665.97
2022-10-01T04:13:33.181Z,99679.75
2022-10-01T04:17:46.057Z,99684.09
2022-10-01T04:21:57.744Z,99680.59
2022-10-01T04:26:09.577Z,99681.97
2022-10-01T04:30:21.649Z,99685.75
2022-10-01T04:34:51.777Z,99693.59
2022-10-01T04:39:03.327Z,99675.53
2022-10-01T04:43:14.883Z,99690.94
2022-10-01T04:47:26.399Z,99675.53
2022-10-01T04:51:37.898Z,99698.50
2022-10-01T04:55:49.438Z,99697.72
2022-10-01T05:00:01.996Z,99687.69
2022-10-01T05:04:13.526Z,99691.75
2022-10-01T05:08:25.016Z,99715.25
2022-10-01T05:12:36.533Z,99701.78
2022-10-01T05:16:48.075Z,99727.13
2022-10-01T05:20:59.626Z,99735.47
2022-10-01T05:25:11.236Z,99741.72
2022-10-01T05:29:23.043Z,99745.22
2022-10-01T05:33:34.686Z,99775.72
2022-10-01T05:37:46.197Z,99763.81
2022-10-01T05:41:59.137Z,99782.50
2022-10-01T05:46:12.191Z,99777.38
2022-10-01T05:50:25.364Z,99769.81
2022-10-01T05:54:37.428Z,99767.66
2022-10-01T05:58:48.957Z,99784.13
2022-10-01T06:03:02.575Z,99803.31
2022-10-01T06:07:14.179Z,99785.75
2022-10-01T06:11:26.834Z,99792.53
2022-10-01T06:15:38.944Z,99783.38
2022-10-01T06:19:51.486Z,99787.44
2022-10-01T06:24:03.044Z,99794.47
2022-10-01T06:28:14.822Z,99811.22
2022-10-01T06:32:26.481Z,99797.75
2022-10-01T06:36:37.997Z,99818.03
2022-10-01T06:40:57.960Z,99807.28
2022-10-01T06:45:09.905Z,99812.44
2022-10-01T06:49:22.202Z,99821.34
2022-10-01T06:53:34.042Z,99817.59
2022-10-01T06:57:46.322Z,99824.63
2022-10-01T07:01:57.926Z,99814.66
2022-10-01T07:06:11.216Z,99835.19
2022-10-01T07:10:23.277Z,99807.94
2022-10-01T07:14:35.253Z,99824.16
2022-10-01T07:18:46.785Z,99837.66
2022-10-01T07:22:59.636Z,99849.00
2022-10-01T07:27:11.160Z,99853.34
2022-10-01T07:31:24.250Z,99864.16
2022-10-01T07:35:38.160Z,99869.84
2022-10-01T07:39:49.803Z,99867.16
2022-10-01T07:44:03.379Z,99867.16
2022-10-01T07:48:15.096Z,99883.88
2022-10-01T07:52:26.637Z,99890.34
2022-10-01T07:56:38.576Z,99894.69
2022-10-01T08:00:52.072Z,99899.56
2022-10-01T08:05:18.738Z,99899.28
2022-10-01T08:09:30.419Z,99913.06
2022-10-01T08:13:42.793Z,99913.56
2022-10-01T08:17:54.364Z,99914.91
2022-10-01T08:22:07.127Z,99923.56
2022-10-01T08:26:18.657Z,99922.47
2022-10-01T08:30:30.916Z,99938.97
2022-10-01T08:34:42.644Z,99946.50
2022-10-01T08:38:54.265Z,99931.63
2022-10-01T08:43:07.448Z,99948.94
2022-10-01T08:47:31.196Z,99938.47
2022-10-01T08:51:58.387Z,99953.72
2022-10-01T08:56:21.721Z,99957.94
2022-10-01T09:00:36.624Z,99971.00
2022-10-01T09:04:51.131Z,99965.31
2022-10-01T09:09:23.947Z,99967.66
2022-10-01T09:13:57.503Z,99989.19
2022-10-01T09:18:37.459Z,99981.75
2022-10-01T09:23:28.883Z,99995.59
2022-10-01T09:27:40.712Z,99986.84
2022-10-01T09:31:53.630Z,99999.31
2022-10-01T09:36:16.073Z,99998.53
2022-10-01T09:40:35.607Z,99985.50
2022-10-01T09:44:47.589Z,100010.13
2022-10-01T09:49:28.041Z,100024.56
2022-10-01T09:53:46.764Z,100023.63
2022-10-01T09:58:09.496Z,100006.53
2022-10-01T10:02:31.428Z,100026.19
2022-10-01T10:06:43.103Z,100017.06
2022-10-01T10:11:01.629Z,100015.97
2022-10-01T10:15:17.632Z,100018.50
2022-10-01T10:19:30.993Z,100015.47
2022-10-01T10:23:50.869Z,100039.03
2022-10-01T10:28:02.751Z,100040.66
2022-10-01T10:32:41.487Z,100051.22
2022-10-01T10:37:07.418Z,100049.06
2022-10-01T10:41:26.058Z,100057.59
2022-10-01T10:45:39.770Z,100055.44
2022-10-01T10:49:53.746Z,100071.41
2022-10-01T10:54:18.224Z,100080.28
2022-10-01T10:58:33.333Z,100094.63
2022-10-01T11:03:06.494Z,100113.13
2022-10-01T11:07:23.704Z,100107.78
2022-10-01T11:11:55.129Z,100120.94
2022-10-01T11:16:18.687Z,100136.69
2022-10-01T11:20:41.262Z,100127.59
2022-10-01T11:25:23.722Z,100141.13
2022-10-01T11:30:03.299Z,100151.78
2022-10-01T11:34:25.228Z,100143.22
2022-10-01T11:38:56.174Z,100160.75
2022-10-01T11:43:32.377Z,100149.22
2022-10-01T11:47:54.692Z,100170.41
2022-10-01T11:52:26.239Z,100179.13
2022-10-01T11:57:04.008Z,100191.84
2022-10-01T12:01:25.096Z,100186.63
2022-10-01T12:05:38.806Z,100193.84
2022-10-01T12:10:17.716Z,100193.84
2022-10-01T12:14:40.409Z,100204.44
2022-10-01T12:19:07.249Z,100195.31
2022-10-01T12:23:34.666Z,100212.31
2022-10-01T12:28:28.294Z,100246.34
2022-10-01T12:32:53.400Z,100251.34
2022-10-01T12:37:26.960Z,100262.31
2022-10-01T12:41:57.171Z,100247.44
2022-10-01T12:46:27.577Z,100266.22
2022-10-01T12:50:39.299Z,100272.88
2022-10-01T12:55:13.705Z,100278.28
2022-10-01T12:59:41.741Z,100286.94
2022-10-01T13:04:03.644Z,100302.47
2022-10-01T13:08:18.288Z,100297.19
2022-10-01T13:12:59.495Z,100302.63
2022-10-01T13:17:24.255Z,100290.88
2022-10-01T13:22:11.119Z,100305.38
2022-10-01T13:26:36.708Z,100313.78
2022-10-01T13:30:59.098Z,100331.06
2022-10-01T13:35:39.159Z,100333.78
2022-10-01T13:39:50.707Z,100334.06
2022-10-01T13:44:08.150Z,100337.66
2022-10-01T13:48:21.187Z,100342.16
2022-10-01T13:52:34.011Z,100356.03
2022-10-01T13:56:45.484Z,100350.66
2022-10-01T14:01:00.338Z,100354.78
2022-10-01T14:05:17.728Z,100377.06
2022-10-01T14:09:33.871Z,100376.97
2022-10-01T14:14:09.425Z,100382.00
2022-10-01T14:18:23.321Z,100383.84
2022-10-01T14:22:59.465Z,100397.69
2022-10-01T14:27:29.794Z,100403.22
2022-10-01T14:31:50.909Z,100418.81
2022-10-01T14:36:15.415Z,100425.91
2022-10-01T14:40:36.634Z,100415.53
2022-10-01T14:44:48.281Z,100420.16
2022-10-01T14:49:00.639Z,100421.03
2022-10-01T14:53:18.276Z,100415.34
2022-10-01T14:57:33.569Z,100429.69
2022-10-01T15:01:54.497Z,100435.63
2022-10-01T15:06:18.053Z,100443.50
2022-10-01T15:10:29.581Z,100446.56
2022-10-01T15:14:42.811Z,100451.53
2022-10-01T15:19:00.627Z,100457.06
2022-10-01T15:23:12.135Z,100470.66
2022-10-01T15:27:24.758Z,100466.56
2022-10-01T15:31:36.948Z,100479.91
2022-10-01T15:35:48.550Z,100481.53
2022-10-01T15:40:01.295Z,100485.38
2022-10-01T15:44:42.632Z,100500.84
2022-10-01T15:49:17.259Z,100510.94
2022-10-01T15:53:29.840Z,100500.88
2022-10-01T15:57:42.070Z,100505.78
2022-10-01T16:01:53.651Z,100512.03
2022-10-01T16:06:08.382Z,100515.00
2022-10-01T16:10:40.769Z,100522.06
2022-10-01T16:15:03.956Z,100537.00
2022-10-01T16:19:31.182Z,100549.72
2022-10-01T16:24:27.666Z,100552.16
2022-10-01T16:28:39.199Z,100563.50
2022-10-01T16:32:50.719Z,100559.09
2022-10-01T16:37:02.326Z,100565.31
2022-10-01T16:41:24.652Z,100573.19
2022-10-01T16:45:42.613Z,100585.31
2022-10-01T16:49:54.238Z,100589.88
2022-10-01T16:54:07.631Z,100594.72
2022-10-01T16:58:20.221Z,100597.31
2022-10-01T17:02:31.772Z,100613.78
2022-10-01T17:06:43.352Z,100622.09
2022-10-01T17:10:59.793Z,100621.13
2022-10-01T17:15:17.649Z,100631.31
2022-10-01T17:19:29.286Z,100645.06
2022-10-01T17:23:40.812Z,100646.03
2022-10-01T17:27:52.481Z,100651.47
2022-10-01T17:32:04.099Z,100660.69
2022-10-01T17:36:15.706Z,100658.03
2022-10-01T17:40:27.198Z,100674.38
2022-10-01T17:44:38.673Z,100673.84
2022-10-01T17:48:50.831Z,100677.72
2022-10-01T17:53:02.355Z,100685.75
2022-10-01T17:57:13.909Z,100703.84
2022-10-01T18:01:25.431Z,100702.16
2022-10-01T18:05:37.013Z,100711.59
2022-10-01T18:09:48.473Z,100720.53
2022-10-01T18:13:59.995Z,100720.69
2022-10-01T18:19:51.461Z,100731.09
2022-10-01T18:22:42.983Z,100742.00
2022-10-01T18:26:54.865Z,100735.84
2022-10-01T18:31:18.724Z,100742.69
2022-10-01T18:35:33.103Z,100757.22
2022-10-01T18:39:49.734Z,100764.09
2022-10-01T18:44:01.589Z,100769.34
2022-10-01T18:48:31.838Z,100778.91
2022-10-01T18:52:50.353Z,100768.69
2022-10-01T18:57:33.029Z,100786.69
2022-10-01T19:02:02.666Z,100789.91
2022-10-01T19:06:26.425Z,100795.84
2022-10-01T19:10:54.996Z,100804.63
2022-10-01T19:15:16.972Z,100806.81
2022-10-01T19:20:06.066Z,100820.78
2022-10-01T19:24:35.801Z,100827.63
2022-10-01T19:29:12.018Z,100835.31
2022-10-01T19:33:24.481Z,100836.50
2022-10-01T19:37:39.246Z,100841.56
2022-10-01T19:42:06.083Z,100846.28
2022-10-01T19:46:26.604Z,100838.53
2022-10-01T19:50:43.345Z,100841.97
2022-10-01T19:55:00.652Z,100844.56
2022-10-01T19:59:14.604Z,100853.25
2022-10-01T20:03:48.417Z,100859.56
2022-10-01T20:08:06.179Z,100875.88
2022-10-01T20:12:28.141Z,100870.72
2022-10-01T20:16:47.063Z,100879.28
2022-10-01T20:21:37.598Z,100888.88
2022-10-01T20:26:10.384Z,100889.34
2022-10-01T20:30:23.753Z,100881.84
2022-10-01T20:34:35.123Z,100896.88
2022-10-01T20:39:03.449Z,100897.25
2022-10-01T20:43:21.103Z,100889.94
2022-10-01T20:47:49.155Z,100887.84
2022-10-01T20:52:13.017Z,100898.28
2022-10-01T20:56:33.481Z,100898.28
2022-10-01T21:00:47.571Z,100908.13
2022-10-01T21:05:07.477Z,100908.81
2022-10-01T21:09:31.006Z,100906.56
2022-10-01T21:14:26.024Z,100904.22
2022-10-01T21:18:57.261Z,100917.94
2022-10-01T21:23:11.579Z,100928.72
2022-10-01T21:27:54.795Z,100926.94
2022-10-01T21:32:36.474Z,100933.16
2022-10-01T21:36:58.540Z,100936.56
2022-10-01T21:41:27.918Z,100937.91
2022-10-01T21:45:59.674Z,100931.56
2022-10-01T21:50:20.613Z,100938.84
2022-10-01T21:55:05.635Z,100941.41
2022-10-01T21:59:49.463Z,100952.03
2022-10-01T22:04:12.665Z,100947.09
2022-10-01T22:08:46.301Z,100947.78
2022-10-01T22:13:02.246Z,100950.13
2022-10-01T22:17:22.683Z,100948.34
2022-10-01T22:21:39.429Z,100942.59
2022-10-01T22:25:57.360Z,100957.53
2022-10-01T22:30:17.108Z,100970.78
2022-10-01T22:34:37.611Z,100975.72
2022-10-01T22:38:55.549Z,100978.78
2022-10-01T22:43:11.058Z,100973.16
2022-10-01T22:47:43.132Z,100979.97
2022-10-01T22:52:28.669Z,100980.03
2022-10-01T22:56:59.182Z,100989.56
2022-10-01T23:01:41.082Z,100990.66
2022-10-01T23:06:04.925Z,100985.16
2022-10-01T23:10:24.100Z,101002.44
2022-10-01T23:15:05.980Z,101011.38
2022-10-01T23:19:28.294Z,101008.00
2022-10-01T23:23:42.994Z,101021.03
2022-10-01T23:28:10.632Z,101010.19
2022-10-01T23:32:34.234Z,101015.56
2022-10-01T23:37:02.819Z,101016.28
2022-10-01T23:41:18.092Z,101015.13
2022-10-01T23:45:44.979Z,101016.63
2022-10-01T23:50:00.404Z,101015.78
2022-10-01T23:54:27.080Z,101020.84
2022-10-01T23:58:55.400Z,101038.69
